Time;durP1;ratioP1;P1;durP2;ratioP2;P2;SDS_P1;SDS_P2;PMS_P1;PMS_P2;Temp;Humidity;BMP_temperature;BMP_pressure;BME280_temperature;BME280_humidity;BME280_pressure;Samples;Min_cycle;Max_cycle;Signal;HPM_P1;HPM_P2
2023/01/19 00:02:21;;;;;;;13.48;1.30;;;;;;;2.58;100.00;100076.41;5054792;28;20037;-74
2023/01/19 00:04:46;;;;;;;3.67;1.02;;;;;;;2.44;100.00;100086.06;5054126;28;20041;-73
2023/01/19 00:07:12;;;;;;;10.88;1.23;;;;;;;2.31;100.00;100092.25;5053636;28;20025;-73
2023/01/19 00:09:37;;;;;;;5.57;1.13;;;;;;;2.20;100.00;100082.50;5052685;28;20481;-74
2023/01/19 00:12:04;;;;;;;6.10;0.93;;;;;;;2.16;100.00;100081.84;5053818;28;20165;-74
2023/01/19 00:14:29;;;;;;;10.30;1.15;;;;;;;2.15;100.00;100100.31;5052748;28;20029;-74
2023/01/19 00:16:54;;;;;;;4.75;0.68;;;;;;;2.08;100.00;100094.66;5053623;28;20033;-75
2023/01/19 00:19:20;;;;;;;2.53;0.50;;;;;;;2.02;100.00;100095.91;5053890;28;20397;-75
2023/01/19 00:21:45;;;;;;;8.55;0.88;;;;;;;1.98;100.00;100099.66;5053375;28;20071;-75
2023/01/19 00:24:12;;;;;;;5.75;0.77;;;;;;;1.95;100.00;100107.75;5053577;28;20033;-72
2023/01/19 00:26:39;;;;;;;2.00;0.70;;;;;;;1.91;100.00;100104.50;5054043;28;20051;-73
2023/01/19 00:29:06;;;;;;;12.00;0.90;;;;;;;1.90;100.00;100094.94;5053267;28;20106;-74
2023/01/19 00:31:32;;;;;;;8.98;0.90;;;;;;;1.87;100.00;100107.44;5053544;28;20035;-74
2023/01/19 00:33:58;;;;;;;5.40;0.75;;;;;;;1.83;100.00;100108.56;5053607;28;20040;-75
2023/01/19 00:36:23;;;;;;;3.42;0.98;;;;;;;1.82;100.00;100112.13;5053240;28;20029;-73
2023/01/19 00:38:49;;;;;;;6.88;0.90;;;;;;;1.75;100.00;100123.03;5053619;28;20127;-74
2023/01/19 00:41:14;;;;;;;4.78;1.00;;;;;;;1.72;100.00;100125.84;5053257;28;20063;-74
2023/01/19 00:43:39;;;;;;;5.32;1.05;;;;;;;1.70;100.00;100121.63;5053256;28;20044;-74
2023/01/19 00:46:05;;;;;;;12.77;1.55;;;;;;;1.72;100.00;100127.63;5053240;28;20079;-75
2023/01/19 00:48:30;;;;;;;5.57;1.00;;;;;;;1.72;100.00;100127.63;5053242;28;20355;-75
2023/01/19 00:50:56;;;;;;;10.10;1.92;;;;;;;1.74;100.00;100128.38;5053751;28;20477;-75
2023/01/19 00:53:21;;;;;;;8.25;1.00;;;;;;;1.76;100.00;100121.22;5051830;28;20116;-74
2023/01/19 00:55:46;;;;;;;11.10;1.42;;;;;;;1.76;100.00;100123.84;5053260;28;20115;-77
2023/01/19 00:58:12;;;;;;;8.82;1.02;;;;;;;1.77;100.00;100129.00;5053183;28;20028;-74
2023/01/19 01:00:37;;;;;;;15.80;1.52;;;;;;;1.78;100.00;100124.59;5053518;28;20090;-75
2023/01/19 01:03:03;;;;;;;5.50;0.93;;;;;;;1.74;100.00;100128.38;5051798;28;20395;-75
2023/01/19 01:05:28;;;;;;;8.75;1.15;;;;;;;1.70;100.00;100126.88;5053210;28;20403;-77
2023/01/19 01:07:54;;;;;;;3.85;0.88;;;;;;;1.66;100.00;100136.72;5052943;28;20136;-76
2023/01/19 01:10:23;;;;;;;5.00;1.33;;;;;;;1.64;100.00;100156.94;5053039;28;20031;-75
2023/01/19 01:12:49;;;;;;;4.90;0.60;;;;;;;1.41;100.00;100180.25;5053037;28;20493;-75
2023/01/19 01:15:16;;;;;;;10.98;1.20;;;;;;;1.25;100.00;100186.53;5052832;28;20040;-76
2023/01/19 01:17:45;;;;;;;2.15;0.70;;;;;;;1.17;100.00;100192.25;5053453;28;20051;-76
2023/01/19 01:20:33;;;;;;;2.67;0.55;;;;;;;1.09;100.00;100186.63;5052873;28;20041;-76
2023/01/19 01:22:59;;;;;;;5.88;0.90;;;;;;;0.95;100.00;100190.94;5052847;28;20044;-76
2023/01/19 01:25:26;;;;;;;5.45;0.93;;;;;;;0.88;100.00;100187.00;5053348;28;20025;-74
2023/01/19 01:27:53;;;;;;;4.13;0.82;;;;;;;0.86;100.00;100176.63;5052873;28;20091;-75
2023/01/19 01:30:19;;;;;;;5.25;0.88;;;;;;;0.90;100.00;100190.41;5053260;28;20051;-76
2023/01/19 01:32:44;;;;;;;5.32;0.90;;;;;;;0.86;100.00;100181.84;5052468;28;20512;-75
2023/01/19 01:35:11;;;;;;;12.95;1.40;;;;;;;0.91;100.00;100189.47;5054687;28;20025;-76
2023/01/19 01:37:37;;;;;;;6.00;1.42;;;;;;;0.94;100.00;100184.03;5056818;28;20040;-76
2023/01/19 01:40:04;;;;;;;16.08;1.08;;;;;;;0.96;100.00;100190.03;5056838;28;20041;-76
2023/01/19 01:42:30;;;;;;;7.43;1.23;;;;;;;1.03;100.00;100195.72;5056719;28;20116;-75
2023/01/19 01:44:59;;;;;;;9.20;1.02;;;;;;;1.15;100.00;100197.59;5055475;28;20048;-76
2023/01/19 01:47:39;;;;;;;18.30;1.42;;;;;;;1.26;100.00;100203.97;5056690;28;20037;-76
2023/01/19 01:50:24;;;;;;;5.70;1.25;;;;;;;1.33;100.00;100213.09;5056897;28;20033;-76
2023/01/19 01:53:01;;;;;;;8.68;1.02;;;;;;;1.33;100.00;100205.25;5056510;28;20086;-76
2023/01/19 01:55:30;;;;;;;10.32;1.02;;;;;;;1.34;100.00;100207.78;5056885;28;20474;-74
2023/01/19 01:58:00;;;;;;;7.75;1.13;;;;;;;1.33;100.00;100198.25;5056328;28;20500;-76
2023/01/19 02:00:26;;;;;;;3.47;0.80;;;;;;;1.34;100.00;100218.25;5057714;28;20027;-76
2023/01/19 02:02:53;;;;;;;11.57;1.63;;;;;;;1.31;100.00;100226.31;5056450;28;20029;-76
2023/01/19 02:05:33;;;;;;;7.25;1.00;;;;;;;1.31;100.00;100241.19;5056988;28;20033;-75
2023/01/19 02:13:38;;;;;;;11.00;0.95;;;;;;;0.82;100.00;100258.09;5056658;28;20052;-76
2023/01/19 02:16:08;;;;;;;5.70;1.20;;;;;;;0.66;100.00;100240.69;5056347;28;20029;-77
2023/01/19 02:18:34;;;;;;;7.28;0.93;;;;;;;0.57;100.00;100235.13;5055683;28;20041;-77
2023/01/19 02:21:08;;;;;;;3.95;0.73;;;;;;;0.53;100.00;100214.34;5056352;28;20036;-78
2023/01/19 02:23:45;;;;;;;7.40;0.88;;;;;;;0.51;100.00;100229.34;5056456;28;20037;-77
2023/01/19 02:26:15;;;;;;;5.53;0.70;;;;;;;0.58;100.00;100228.97;5056399;28;20091;-76
2023/01/19 02:28:47;;;;;;;6.70;0.65;;;;;;;0.58;100.00;100223.72;5054665;28;20033;-75
2023/01/19 02:31:14;;;;;;;8.32;0.60;;;;;;;0.58;100.00;100211.47;5056306;28;20044;-76
2023/01/19 02:33:39;;;;;;;5.57;0.80;;;;;;;0.59;100.00;100228.88;5055770;28;20039;-76
2023/01/19 02:36:08;;;;;;;4.22;1.05;;;;;;;0.61;100.00;100241.88;5055542;28;20456;-76
2023/01/19 02:38:35;;;;;;;3.92;0.95;;;;;;;0.62;100.00;100248.81;5055946;28;20051;-76
2023/01/19 02:41:04;;;;;;;6.07;0.93;;;;;;;0.60;100.00;100248.03;5055795;28;20385;-76
2023/01/19 02:43:30;;;;;;;5.10;0.70;;;;;;;0.55;100.00;100235.22;5055624;28;20032;-75
2023/01/19 02:45:56;;;;;;;8.23;1.23;;;;;;;0.50;100.00;100226.81;5055334;28;20399;-75
2023/01/19 02:48:22;;;;;;;9.65;1.30;;;;;;;0.47;100.00;100216.50;5055346;28;20025;-76
2023/01/19 02:51:03;;;;;;;14.88;1.30;;;;;;;0.46;100.00;100238.38;5055796;28;20037;-77
2023/01/19 02:53:31;;;;;;;9.80;2.00;;;;;;;0.44;100.00;100237.63;5056209;28;20032;-76
2023/01/19 02:56:10;;;;;;;8.50;1.15;;;;;;;0.42;100.00;100240.34;5055487;28;20029;-77
2023/01/19 02:58:43;;;;;;;8.73;1.20;;;;;;;0.43;100.00;100226.28;5055143;28;20170;-76
2023/01/19 03:01:57;;;;;;;9.65;1.10;;;;;;;0.35;100.00;100204.97;5055880;28;20021;-78
2023/01/19 03:04:44;;;;;;;9.15;1.17;;;;;;;0.28;100.00;100209.72;4997614;28;20585;-77
2023/01/19 03:07:20;;;;;;;8.20;1.20;;;;;;;0.25;100.00;100233.44;5055826;28;20025;-78
2023/01/19 03:09:52;;;;;;;8.27;1.52;;;;;;;0.24;100.00;100237.00;5054054;28;20051;-77
2023/01/19 03:12:43;;;;;;;11.85;1.33;;;;;;;0.34;100.00;100250.38;5055355;28;20028;-77
2023/01/19 03:15:18;;;;;;;12.57;1.15;;;;;;;0.46;100.00;100239.25;5055519;28;20036;-77
2023/01/19 03:17:47;;;;;;;13.95;1.85;;;;;;;0.56;100.00;100244.75;5055437;28;20037;-77
2023/01/19 03:20:17;;;;;;;13.95;1.70;;;;;;;0.63;100.00;100245.25;5054713;28;20461;-79
2023/01/19 03:22:44;;;;;;;21.30;2.47;;;;;;;0.66;100.00;100245.09;5055500;28;20033;-77
2023/01/19 03:25:14;;;;;;;17.63;2.17;;;;;;;0.65;100.00;100248.63;5054968;28;20333;-77
2023/01/19 03:27:42;;;;;;;15.32;1.88;;;;;;;0.62;100.00;100247.03;5055118;28;20029;-77
2023/01/19 03:30:18;;;;;;;10.90;2.15;;;;;;;0.64;100.00;100245.19;5053545;28;20025;-77
2023/01/19 03:32:50;;;;;;;13.25;1.48;;;;;;;0.67;100.00;100246.75;5054163;28;20070;-77
2023/01/19 03:35:18;;;;;;;24.05;2.42;;;;;;;0.91;100.00;100270.66;5054660;28;20033;-77
2023/01/19 03:37:47;;;;;;;15.27;2.60;;;;;;;1.12;100.00;100265.94;5055167;28;20036;-76
2023/01/19 03:40:13;;;;;;;16.95;1.73;;;;;;;1.18;100.00;100272.53;5054667;28;20032;-76
2023/01/19 03:42:40;;;;;;;16.25;2.08;;;;;;;1.22;100.00;100279.28;5054539;28;20497;-76
2023/01/19 03:45:06;;;;;;;8.60;1.92;;;;;;;1.28;100.00;100285.94;5054984;28;20037;-76
2023/01/19 03:47:33;;;;;;;13.50;1.92;;;;;;;1.29;100.00;100287.66;5053563;28;20075;-75
2023/01/19 03:50:02;;;;;;;17.75;2.13;;;;;;;1.34;100.00;100289.03;5053617;28;20025;-77
2023/01/19 03:52:32;;;;;;;20.40;2.53;;;;;;;1.40;100.00;100287.81;5053000;28;20025;-76
2023/01/19 03:55:03;;;;;;;20.10;3.40;;;;;;;1.47;100.00;100283.06;5052997;28;20458;-77
2023/01/19 03:57:29;;;;;;;16.48;2.20;;;;;;;1.48;100.00;100280.34;5053622;28;20025;-77
2023/01/19 03:59:55;;;;;;;17.40;2.28;;;;;;;1.49;100.00;100299.53;5054290;28;20084;-77
2023/01/19 04:02:21;;;;;;;14.88;2.20;;;;;;;1.53;100.00;100278.25;5054103;28;20384;-78
2023/01/19 04:04:46;;;;;;;13.13;1.77;;;;;;;1.62;100.00;100279.47;5054137;28;20120;-77
2023/01/19 04:07:12;;;;;;;22.48;2.22;;;;;;;1.64;100.00;100288.09;5053128;28;20497;-77
2023/01/19 04:09:37;;;;;;;11.77;2.35;;;;;;;1.64;100.00;100285.47;5054364;28;20040;-77
2023/01/19 04:12:03;;;;;;;16.08;1.80;;;;;;;1.62;100.00;100287.34;5054495;28;20120;-77
2023/01/19 04:14:28;;;;;;;9.98;1.50;;;;;;;1.56;100.00;100293.81;5054436;28;20036;-77
2023/01/19 04:16:54;;;;;;;16.20;2.30;;;;;;;1.56;100.00;100293.81;5054013;28;20539;-76
2023/01/19 04:19:19;;;;;;;15.77;2.08;;;;;;;1.57;100.00;100297.28;5054306;28;20464;-78
2023/01/19 04:21:47;;;;;;;21.02;2.30;;;;;;;1.63;100.00;100285.56;5054034;28;20090;-76
2023/01/19 04:24:12;;;;;;;19.05;3.25;;;;;;;1.72;100.00;100292.88;5053880;28;20057;-77
2023/01/19 04:26:38;;;;;;;21.58;2.53;;;;;;;1.82;100.00;100293.13;5053744;28;20087;-77
2023/01/19 04:29:04;;;;;;;18.88;2.13;;;;;;;1.85;100.00;100285.06;5054044;28;20037;-76
2023/01/19 04:31:30;;;;;;;19.20;2.97;;;;;;;1.92;100.00;100286.38;5053758;28;20389;-77
2023/01/19 04:33:55;;;;;;;14.77;2.40;;;;;;;1.90;100.00;100291.72;5053262;28;20569;-77
2023/01/19 04:36:21;;;;;;;18.25;2.45;;;;;;;1.88;100.00;100292.75;5053322;28;20049;-77
2023/01/19 04:38:47;;;;;;;23.48;3.05;;;;;;;1.87;100.00;100291.06;5035743;28;20029;-77
2023/01/19 04:41:13;;;;;;;9.32;1.83;;;;;;;1.90;100.00;100288.25;5053545;28;20029;-77
2023/01/19 04:43:38;;;;;;;17.15;2.58;;;;;;;1.92;100.00;100294.25;5053558;28;20043;-77
2023/01/19 04:46:04;;;;;;;20.27;2.85;;;;;;;1.89;100.00;100292.66;5053494;28;20082;-77
2023/01/19 04:48:29;;;;;;;24.63;2.92;;;;;;;1.88;100.00;100292.75;5053059;28;20033;-77
2023/01/19 04:50:54;;;;;;;15.77;2.40;;;;;;;1.92;100.00;100294.25;5054097;28;20040;-77
2023/01/19 04:53:20;;;;;;;22.48;2.45;;;;;;;2.01;100.00;100296.28;5053697;28;20037;-76
2023/01/19 04:55:45;;;;;;;21.52;3.90;;;;;;;2.08;100.00;100304.63;5053795;28;20086;-78
2023/01/19 04:58:11;;;;;;;15.18;2.63;;;;;;;2.10;100.00;100311.44;5053780;28;20035;-77
2023/01/19 05:00:36;;;;;;;15.73;3.03;;;;;;;2.09;100.00;100307.16;5053194;28;20028;-77
2023/01/19 05:03:02;;;;;;;25.20;3.15;;;;;;;2.13;100.00;100309.56;5053175;28;20041;-77
2023/01/19 05:05:28;;;;;;;17.73;2.42;;;;;;;2.18;100.00;100310.97;5053526;28;20036;-78
2023/01/19 05:07:54;;;;;;;19.05;3.00;;;;;;;2.29;100.00;100318.16;5052989;28;20055;-77
2023/01/19 05:10:19;;;;;;;19.05;2.83;;;;;;;2.39;100.00;100307.88;5053018;28;20493;-77
2023/01/19 05:12:44;;;;;;;16.55;2.05;;;;;;;2.40;100.00;100299.06;5053028;28;20052;-77
2023/01/19 05:15:10;;;;;;;13.43;2.15;;;;;;;2.41;100.00;100304.22;5053041;28;20033;-78
2023/01/19 05:17:36;;;;;;;8.27;1.83;;;;;;;2.45;100.00;100308.34;5051777;28;20094;-76
2023/01/19 05:20:03;;;;;;;16.50;2.03;;;;;;;2.47;100.00;100308.25;5051860;28;20025;-76
2023/01/19 05:22:28;;;;;;;15.13;2.17;;;;;;;2.48;100.00;100307.31;5052871;28;20079;-78
2023/01/19 05:24:54;;;;;;;12.60;2.38;;;;;;;2.43;100.00;100310.22;5052850;28;20033;-75
2023/01/19 05:27:19;;;;;;;12.60;2.05;;;;;;;2.34;100.00;100313.44;5053216;28;20091;-76
2023/01/19 05:29:45;;;;;;;13.95;2.63;;;;;;;2.26;100.00;100313.94;5051583;28;20029;-77
2023/01/19 05:32:10;;;;;;;22.90;3.28;;;;;;;2.31;100.00;100316.25;5053168;28;20099;-77
2023/01/19 05:34:36;;;;;;;14.00;2.55;;;;;;;2.25;100.00;100317.47;5052704;28;20416;-76
2023/01/19 05:37:01;;;;;;;21.88;3.10;;;;;;;2.19;100.00;100311.81;5053178;28;20033;-76
2023/01/19 05:39:27;;;;;;;11.45;1.50;;;;;;;2.19;100.00;100328.38;5053339;28;20113;-79
2023/01/19 05:41:52;;;;;;;21.38;2.30;;;;;;;2.15;100.00;100315.56;5053338;28;20065;-75
2023/01/19 05:44:18;;;;;;;19.95;2.95;;;;;;;2.15;100.00;100324.28;5052900;28;20542;-76
2023/01/19 05:46:43;;;;;;;21.38;2.33;;;;;;;2.15;100.00;100336.56;5051773;28;20025;-76
2023/01/19 05:49:10;;;;;;;17.80;2.60;;;;;;;2.14;100.00;100330.47;5052766;28;20458;-76
2023/01/19 05:51:37;;;;;;;16.00;2.40;;;;;;;2.20;100.00;100335.31;5051916;28;20112;-77
2023/01/19 05:54:07;;;;;;;20.10;2.55;;;;;;;2.22;100.00;100345.72;5052660;28;20029;-76
2023/01/19 05:56:33;;;;;;;11.15;2.42;;;;;;;2.29;100.00;100349.66;5052739;28;20044;-76
2023/01/19 05:58:59;;;;;;;21.65;2.80;;;;;;;2.44;100.00;100348.66;5052690;28;20466;-75
2023/01/19 06:01:25;;;;;;;20.95;2.75;;;;;;;2.57;100.00;100342.63;5053401;28;20079;-77
2023/01/19 06:03:50;;;;;;;19.05;3.17;;;;;;;2.60;100.00;100355.56;5051524;28;20421;-75
2023/01/19 06:06:16;;;;;;;22.00;2.47;;;;;;;2.61;100.00;100363.34;5051309;28;20037;-76
2023/01/19 06:08:41;;;;;;;18.40;2.35;;;;;;;2.59;100.00;100367.00;5051032;28;20088;-75
2023/01/19 06:11:07;;;;;;;10.30;2.13;;;;;;;2.52;100.00;100363.09;5052368;28;20068;-75
2023/01/19 06:13:32;;;;;;;9.77;1.88;;;;;;;2.42;100.00;100358.44;5052336;28;20029;-75
2023/01/19 06:15:59;;;;;;;12.13;2.13;;;;;;;2.31;100.00;100378.44;5052257;28;20075;-74
2023/01/19 06:18:24;;;;;;;8.25;1.85;;;;;;;2.14;100.00;100374.25;5052415;28;20056;-74
2023/01/19 06:20:51;;;;;;;18.17;2.67;;;;;;;1.97;100.00;100373.53;5054074;28;20037;-75
2023/01/19 06:23:16;;;;;;;8.93;1.48;;;;;;;1.82;100.00;100379.69;5054600;28;20033;-75
2023/01/19 06:25:42;;;;;;;11.60;2.60;;;;;;;1.70;100.00;100389.16;5056433;28;20033;-76
2023/01/19 06:28:08;;;;;;;9.98;1.83;;;;;;;1.62;100.00;100376.53;5055823;28;20033;-76
2023/01/19 06:30:33;;;;;;;11.63;2.28;;;;;;;1.62;100.00;100394.03;5055578;28;20053;-78
2023/01/19 06:32:58;;;;;;;8.10;1.40;;;;;;;1.69;100.00;100403.22;5054744;28;20108;-75
2023/01/19 06:35:24;;;;;;;15.65;3.03;;;;;;;1.69;100.00;100401.44;5055596;28;20041;-75
2023/01/19 06:37:49;;;;;;;17.77;3.25;;;;;;;1.63;100.00;100401.81;5056967;28;20037;-74
2023/01/19 06:40:15;;;;;;;19.45;2.70;;;;;;;1.57;100.00;100403.03;5055657;28;20517;-74
2023/01/19 06:42:40;;;;;;;13.20;1.67;;;;;;;1.47;100.00;100407.13;5055725;28;20068;-76
2023/01/19 06:45:08;;;;;;;14.60;3.15;;;;;;;1.41;100.00;100405.72;5055675;28;20040;-75
2023/01/19 06:47:33;;;;;;;15.85;1.63;;;;;;;1.37;100.00;100412.09;5055479;28;20033;-75
2023/01/19 06:49:58;;;;;;;16.80;1.90;;;;;;;1.33;100.00;100425.44;5054920;28;20032;-75
2023/01/19 06:52:24;;;;;;;10.40;1.65;;;;;;;1.31;100.00;100422.91;5054885;28;20451;-73
2023/01/19 06:54:49;;;;;;;12.15;2.25;;;;;;;1.41;100.00;100431.91;5054938;28;20354;-73
2023/01/19 06:57:14;;;;;;;24.08;2.42;;;;;;;1.46;100.00;100430.81;5054809;28;20036;-75
2023/01/19 06:59:40;;;;;;;15.65;1.95;;;;;;;1.55;100.00;100430.25;5054847;28;20061;-76
2023/01/19 07:02:06;;;;;;;17.58;2.10;;;;;;;1.47;100.00;100430.72;5055244;28;20041;-75
2023/01/19 07:04:32;;;;;;;12.63;1.45;;;;;;;1.43;100.00;100433.63;5055322;28;20091;-73
2023/01/19 07:06:58;;;;;;;12.30;1.90;;;;;;;1.52;100.00;100438.31;5054759;28;20043;-74
2023/01/19 07:09:24;;;;;;;16.45;2.28;;;;;;;1.65;100.00;100441.06;5054638;28;20132;-74
2023/01/19 07:11:49;;;;;;;9.95;1.48;;;;;;;1.90;100.00;100443.91;5054653;28;20524;-74
2023/01/19 07:14:15;;;;;;;24.30;2.05;;;;;;;1.99;100.00;100445.13;5054458;28;20033;-75
2023/01/19 07:16:40;;;;;;;16.90;1.70;;;;;;;1.92;100.00;100444.63;5054290;28;20514;-75
2023/01/19 07:19:09;;;;;;;20.40;2.28;;;;;;;1.88;100.00;100442.28;5054393;28;20033;-74
2023/01/19 07:21:34;;;;;;;12.73;2.10;;;;;;;1.81;100.00;100464.59;5054415;28;20061;-75
2023/01/19 07:23:59;;;;;;;12.63;1.98;;;;;;;1.77;100.00;100453.44;5054439;28;20513;-75
2023/01/19 07:26:26;;;;;;;15.13;1.70;;;;;;;1.74;100.00;100469.38;5052937;28;20481;-75
2023/01/19 07:28:52;;;;;;;14.50;2.60;;;;;;;1.70;100.00;100470.47;5054580;28;20106;-74
2023/01/19 07:31:18;;;;;;;9.98;1.60;;;;;;;1.69;100.00;100479.31;5053062;28;20424;-74
2023/01/19 07:33:44;;;;;;;14.52;2.13;;;;;;;1.68;100.00;100477.59;5053869;28;20029;-75
2023/01/19 07:36:09;;;;;;;9.50;1.85;;;;;;;1.65;100.00;100478.63;5054091;28;20052;-76
2023/01/19 07:38:35;;;;;;;12.15;2.08;;;;;;;1.71;100.00;100478.25;5052769;28;20438;-75
2023/01/19 07:41:01;;;;;;;16.67;1.65;;;;;;;1.70;100.00;100479.22;5053902;28;20033;-75
2023/01/19 07:43:26;;;;;;;14.68;1.90;;;;;;;1.79;100.00;100488.28;5053875;28;20036;-74
2023/01/19 07:45:55;;;;;;;18.88;2.00;;;;;;;1.78;100.00;100486.63;5053544;28;20440;-75
2023/01/19 07:48:21;;;;;;;10.77;1.80;;;;;;;1.77;100.00;100491.00;5053899;28;20028;-77
2023/01/19 07:50:47;;;;;;;13.68;2.28;;;;;;;1.83;100.00;100499.47;5053743;28;20120;-75
2023/01/19 07:53:12;;;;;;;13.77;1.90;;;;;;;1.87;100.00;100501.81;5053402;28;20063;-77
2023/01/19 07:55:38;;;;;;;13.05;1.83;;;;;;;1.90;100.00;100501.63;5053925;28;20032;-76
2023/01/19 07:58:06;;;;;;;8.10;1.58;;;;;;;1.96;100.00;100510.91;5053255;28;20037;-81
2023/01/19 08:00:31;;;;;;;17.50;1.70;;;;;;;2.04;100.00;100508.66;5054238;28;20462;-76
2023/01/19 08:03:00;;;;;;;9.57;1.88;;;;;;;2.04;100.00;100516.53;5054090;28;20071;-74
2023/01/19 08:05:30;;;;;;;14.02;2.45;;;;;;;2.04;100.00;100515.69;5054454;28;20040;-75
2023/01/19 08:07:56;;;;;;;20.83;1.65;;;;;;;2.04;100.00;100518.31;5054474;28;20033;-74
2023/01/19 08:10:25;;;;;;;17.00;1.98;;;;;;;2.00;100.00;100527.31;5054865;28;20129;-84
2023/01/19 08:12:54;;;;;;;8.05;1.38;;;;;;;1.92;100.00;100525.16;5054646;28;20119;-74
2023/01/19 08:15:22;;;;;;;7.40;1.63;;;;;;;1.89;100.00;100535.81;5052488;28;20025;-77
2023/01/19 08:17:54;;;;;;;12.60;1.60;;;;;;;1.86;100.00;100528.97;5053525;28;20029;-76
2023/01/19 08:20:22;;;;;;;11.00;1.60;;;;;;;1.85;100.00;100539.56;5053500;28;20029;-76
2023/01/19 08:22:47;;;;;;;10.13;1.52;;;;;;;1.87;100.00;100537.72;5053364;28;20123;-76
2023/01/19 08:25:13;;;;;;;10.35;1.75;;;;;;;1.96;100.00;100547.66;5053697;28;20106;-75
2023/01/19 08:27:38;;;;;;;7.70;1.50;;;;;;;2.01;100.00;100550.84;5053846;28;20449;-75
2023/01/19 08:30:04;;;;;;;10.85;1.70;;;;;;;2.06;100.00;100546.16;5053338;28;20158;-74
2023/01/19 08:32:29;;;;;;;14.50;1.92;;;;;;;2.07;100.00;100558.34;5053839;28;20458;-74
2023/01/19 08:34:55;;;;;;;11.23;1.88;;;;;;;2.05;100.00;100559.38;5053123;28;20036;-74
2023/01/19 08:37:20;;;;;;;14.98;1.70;;;;;;;2.01;100.00;100556.09;5052988;28;20112;-74
2023/01/19 08:39:46;;;;;;;11.07;1.70;;;;;;;2.00;100.00;100553.56;5053450;28;20037;-74
2023/01/19 08:42:11;;;;;;;9.38;1.45;;;;;;;2.09;100.00;100569.63;5052793;28;20036;-74
2023/01/19 08:44:36;;;;;;;8.38;1.40;;;;;;;2.15;100.00;100570.16;5053209;28;20029;-73
2023/01/19 08:47:02;;;;;;;9.60;1.70;;;;;;;2.18;100.00;100565.59;5052191;28;20381;-73
2023/01/19 08:49:27;;;;;;;6.90;1.65;;;;;;;2.28;100.00;100569.38;5053436;28;20065;-73
2023/01/19 08:51:52;;;;;;;9.13;1.73;;;;;;;2.43;100.00;100566.72;5053150;28;20059;-73
2023/01/19 08:54:20;;;;;;;8.55;1.40;;;;;;;2.59;100.00;100562.22;5052596;28;20057;-73
2023/01/19 08:56:45;;;;;;;9.38;1.85;;;;;;;2.68;100.00;100565.25;5053207;28;20029;-73
2023/01/19 08:59:11;;;;;;;12.10;1.90;;;;;;;2.75;100.00;100564.75;5053003;28;20108;-72
2023/01/19 09:01:36;;;;;;;11.00;1.77;;;;;;;2.81;100.00;100572.25;5052964;28;20029;-73
2023/01/19 09:04:02;;;;;;;8.85;2.15;;;;;;;2.86;100.00;100565.88;5052895;28;20028;-73
2023/01/19 09:06:27;;;;;;;10.35;1.73;;;;;;;2.93;100.00;100570.66;5052655;28;20033;-74
2023/01/19 09:08:52;;;;;;;5.28;1.55;;;;;;;3.03;100.00;100573.56;5052535;28;20382;-81
2023/01/19 09:11:18;;;;;;;7.55;1.65;;;;;;;3.12;100.00;100572.09;5053476;28;20116;-79
2023/01/19 09:13:44;;;;;;;10.98;1.50;;;;;;;3.10;100.00;100577.44;5052968;28;20473;-76
2023/01/19 09:16:11;;;;;;;6.93;1.83;;;;;;;3.13;100.00;100581.69;5053354;28;20167;-78
2023/01/19 09:18:38;;;;;;;6.07;1.00;;;;;;;3.12;100.00;100580.84;5052912;28;20378;-78
2023/01/19 09:21:03;;;;;;;9.52;1.48;;;;;;;3.16;100.00;100582.34;5052963;28;20033;-81
2023/01/19 09:23:28;;;;;;;7.13;1.55;;;;;;;3.22;100.00;100588.97;5051951;28;20037;-82
2023/01/19 09:25:59;;;;;;;11.80;2.28;;;;;;;3.27;100.00;100589.53;5053749;28;20037;-79
2023/01/19 09:28:26;;;;;;;15.40;1.70;;;;;;;3.29;100.00;100592.91;5052936;28;20469;-80
2023/01/19 09:30:51;;;;;;;10.85;1.73;;;;;;;3.28;100.00;100608.78;5052900;28;20021;-77
2023/01/19 09:33:18;;;;;;;8.02;1.63;;;;;;;3.22;100.00;100596.88;5052425;28;20075;-79
2023/01/19 09:35:44;;;;;;;5.35;1.70;;;;;;;3.23;100.00;100595.94;5052777;28;20428;-80
2023/01/19 09:38:11;;;;;;;11.00;2.40;;;;;;;3.22;100.00;100596.03;5052511;28;20090;-80
2023/01/19 09:40:41;;;;;;;5.60;1.33;;;;;;;3.22;100.00;100602.13;5053935;28;20039;-80
2023/01/19 09:43:16;;;;;;;5.30;1.20;;;;;;;3.23;100.00;100608.25;5052948;28;20488;-80
2023/01/19 09:45:51;;;;;;;3.67;1.20;;;;;;;3.27;100.00;100613.22;5053232;28;20066;-80
2023/01/19 09:48:27;;;;;;;8.43;1.50;;;;;;;3.31;100.00;100605.97;5052855;28;20025;-80
2023/01/19 09:50:57;;;;;;;4.55;1.20;;;;;;;3.35;100.00;100612.72;5052750;28;20025;-79
2023/01/19 09:53:56;;;;;;;6.45;1.10;;;;;;;3.40;100.00;100615.88;5052967;28;20025;-81
2023/01/19 09:56:22;;;;;;;4.47;0.93;;;;;;;3.46;100.00;100623.41;5055909;28;20441;-82
2023/01/19 09:58:49;;;;;;;6.88;1.23;;;;;;;3.45;100.00;100616.44;5057400;28;20060;-79
2023/01/19 10:01:30;;;;;;;8.70;1.50;;;;;;;3.45;100.00;100623.47;5057242;28;20067;-82
2023/01/19 10:04:06;;;;;;;12.20;1.65;;;;;;;3.47;100.00;100626.88;5056647;28;20039;-79
2023/01/19 10:06:32;;;;;;;2.97;1.05;;;;;;;3.48;100.00;100623.31;5057364;28;20060;-79
2023/01/19 10:09:31;;;;;;;11.45;1.50;;;;;;;3.47;100.00;100630.34;5056501;28;20080;-80
2023/01/19 10:12:12;;;;;;;3.58;1.02;;;;;;;3.44;100.00;100629.69;5056420;28;20373;-81
2023/01/19 10:14:50;;;;;;;5.15;1.25;;;;;;;3.33;100.00;100635.66;5057576;28;20419;-81
2023/01/19 10:17:42;;;;;;;4.70;1.00;;;;;;;3.38;100.00;100640.63;5055895;28;20029;-81
2023/01/19 10:20:16;;;;;;;5.63;1.70;;;;;;;3.48;100.00;100636.47;5056955;28;20564;-78
2023/01/19 10:22:46;;;;;;;9.18;1.35;;;;;;;3.56;100.00;100644.69;5056419;28;20025;-76
2023/01/19 10:25:18;;;;;;;5.00;1.42;;;;;;;3.63;100.00;100643.34;5055771;28;20029;-77
2023/01/19 10:27:45;;;;;;;3.47;1.05;;;;;;;3.68;100.00;100645.69;5056112;28;20381;-78
2023/01/19 10:30:17;;;;;;;7.35;1.13;;;;;;;3.81;100.00;100646.59;5055914;28;20052;-78
2023/01/19 10:32:43;;;;;;;11.52;1.33;;;;;;;3.91;100.00;100645.97;5056294;28;20029;-76
2023/01/19 10:35:22;;;;;;;6.13;1.10;;;;;;;3.78;100.00;100656.47;5054352;28;20120;-76
2023/01/19 10:37:48;;;;;;;9.30;0.95;;;;;;;3.58;100.00;100647.22;5055717;28;20069;-79
2023/01/19 10:40:37;;;;;;;6.07;1.58;;;;;;;3.43;100.00;100643.78;5055965;28;20120;-78
2023/01/19 10:43:33;;;;;;;4.35;0.88;;;;;;;3.33;100.00;100654.06;5055904;28;20103;-79
2023/01/19 10:46:01;;;;;;;4.35;1.10;;;;;;;3.23;100.00;100645.06;5055386;28;20144;-77
2023/01/19 10:48:36;;;;;;;14.98;1.73;;;;;;;3.20;100.00;100645.25;5055821;28;20059;-78
2023/01/19 10:51:03;;;;;;;5.28;1.10;;;;;;;3.39;100.00;100647.53;5056794;28;20035;-78
2023/01/19 10:53:29;;;;;;;3.08;0.98;;;;;;;3.60;100.00;100645.31;5054858;28;20354;-77
2023/01/19 10:56:23;;;;;;;5.03;1.08;;;;;;;4.04;97.70;100641.59;5054048;28;20036;-78
2023/01/19 10:58:48;;;;;;;3.80;0.85;;;;;;;4.40;91.99;100635.66;5055874;28;20052;-77
2023/01/19 11:01:15;;;;;;;4.75;1.20;;;;;;;4.64;90.58;100634.91;5055389;28;20465;-77
2023/01/19 11:03:41;;;;;;;4.32;1.15;;;;;;;4.93;90.23;100642.59;5054082;28;20040;-77
2023/01/19 11:06:12;;;;;;;6.07;1.27;;;;;;;5.24;83.29;100641.28;5055545;28;20029;-79
2023/01/19 11:08:38;;;;;;;;;;;;;;;5.15;78.36;100644.56;5056130;28;20053;-79
2023/01/19 11:11:06;;;;;;;6.47;1.27;;;;;;;4.89;77.63;100649.84;5054259;28;19920;-79
2023/01/19 11:13:33;;;;;;;3.13;1.30;;;;;;;4.92;78.39;100648.81;5055653;28;20036;-80
2023/01/19 11:16:26;;;;;;;4.35;0.98;;;;;;;5.19;80.72;100647.81;5054936;28;20107;-75
2023/01/19 11:18:54;;;;;;;6.38;1.60;;;;;;;5.43;71.75;100651.34;5054942;28;20033;-79
2023/01/19 11:21:24;;;;;;;4.93;1.10;;;;;;;5.44;74.58;100649.56;5055157;28;20040;-75
2023/01/19 11:24:01;;;;;;;8.20;1.50;;;;;;;5.60;70.84;100649.28;5055155;28;20091;-75
2023/01/19 11:26:31;;;;;;;6.95;1.10;;;;;;;5.55;75.17;100644.31;5055342;28;20025;-77
2023/01/19 11:28:59;;;;;;;3.00;0.90;;;;;;;5.59;71.28;100655.53;5055661;28;20029;-76
2023/01/19 11:31:27;;;;;;;9.90;1.63;;;;;;;5.21;66.55;100646.78;5055288;28;20044;-77
2023/01/19 11:33:56;;;;;;;5.45;1.52;;;;;;;4.94;68.49;100645.13;5055020;28;20029;-76